createdAt,value
2023-04-16T00:01:40.525Z,63.12
2023-04-16T00:04:08.727Z,63.08
2023-04-16T00:06:36.857Z,63.21
2023-04-16T00:09:04.629Z,63.22
2023-04-16T00:11:32.654Z,63.26
2023-04-16T00:14:00.665Z,63.31
2023-04-16T00:16:28.631Z,63.42
2023-04-16T00:18:56.559Z,63.45
2023-04-16T00:21:24.279Z,63.42
2023-04-16T00:23:52.027Z,63.46
2023-04-16T00:26:19.730Z,63.55
2023-04-16T00:28:47.980Z,63.57
2023-04-16T00:31:15.964Z,63.64
2023-04-16T00:33:44.168Z,63.72
2023-04-16T00:36:12.067Z,63.68
2023-04-16T00:38:40.064Z,63.64
2023-04-16T00:41:07.833Z,63.74
2023-04-16T00:43:35.813Z,63.68
2023-04-16T00:46:05.069Z,63.82
2023-04-16T00:48:33.445Z,63.79
2023-04-16T00:51:01.997Z,63.82
2023-04-16T00:53:30.493Z,63.88
2023-04-16T00:55:59.146Z,63.90
2023-04-16T00:58:26.876Z,63.97
2023-04-16T01:00:54.651Z,63.89
2023-04-16T01:03:23.317Z,63.87
2023-04-16T01:05:51.307Z,63.82
2023-04-16T01:08:20.784Z,63.71
2023-04-16T01:10:48.636Z,63.74
2023-04-16T01:13:16.430Z,63.66
2023-04-16T01:15:44.272Z,63.61
2023-04-16T01:18:19.711Z,63.61
2023-04-16T01:20:48.238Z,63.60
2023-04-16T01:23:16.120Z,63.52
2023-04-16T01:25:45.677Z,63.49
2023-04-16T01:28:13.828Z,63.63
2023-04-16T01:30:41.745Z,63.72
2023-04-16T01:33:19.314Z,63.62
2023-04-16T01:35:47.418Z,63.74
2023-04-16T01:38:16.621Z,63.76
2023-04-16T01:40:44.669Z,63.78
2023-04-16T01:43:13.265Z,63.81
2023-04-16T01:45:41.242Z,63.64
2023-04-16T01:48:09.698Z,63.66
2023-04-16T01:50:37.892Z,63.60
2023-04-16T01:53:05.896Z,63.41
2023-04-16T01:55:34.196Z,63.31
2023-04-16T01:58:01.969Z,63.27
2023-04-16T02:00:32.777Z,63.16
2023-04-16T02:03:01.000Z,63.01
2023-04-16T02:05:29.156Z,63.07
2023-04-16T02:07:59.185Z,62.92
2023-04-16T02:10:27.042Z,62.79
2023-04-16T02:12:55.046Z,62.58
2023-04-16T02:15:24.207Z,62.61
2023-04-16T02:17:56.696Z,62.65
2023-04-16T02:20:25.916Z,62.44
2023-04-16T02:22:56.521Z,62.21
2023-04-16T02:25:25.471Z,62.08
2023-04-16T02:27:54.961Z,61.84
2023-04-16T02:30:51.750Z,61.95
2023-04-16T02:33:20.648Z,62.06
2023-04-16T02:36:10.617Z,62.11
2023-04-16T02:38:38.888Z,62.23
2023-04-16T02:41:07.843Z,62.26
2023-04-16T02:43:35.917Z,62.29
2023-04-16T02:46:04.229Z,62.22
2023-04-16T02:48:32.260Z,62.18
2023-04-16T02:51:00.915Z,62.26
2023-04-16T02:53:28.795Z,62.37
2023-04-16T02:55:56.599Z,62.40
2023-04-16T02:58:25.002Z,62.40
2023-04-16T03:00:53.836Z,62.37
2023-04-16T03:03:22.760Z,62.29
2023-04-16T03:05:50.988Z,62.30
2023-04-16T03:08:18.938Z,62.20
2023-04-16T03:10:46.800Z,62.30
2023-04-16T03:13:15.587Z,62.15
2023-04-16T03:15:52.046Z,62.03
2023-04-16T03:18:19.821Z,62.06
2023-04-16T03:20:53.446Z,62.18
2023-04-16T03:23:21.593Z,62.35
2023-04-16T03:25:49.277Z,62.57
2023-04-16T03:28:19.091Z,63.00
2023-04-16T03:30:50.556Z,63.08
2023-04-16T03:33:18.778Z,63.19
2023-04-16T03:35:46.886Z,63.47
2023-04-16T03:38:14.873Z,63.63
2023-04-16T03:40:43.029Z,63.80
2023-04-16T03:43:10.938Z,63.88
2023-04-16T03:45:43.866Z,64.00
2023-04-16T03:48:12.390Z,64.08
2023-04-16T03:50:40.403Z,64.13
2023-04-16T03:53:10.034Z,64.10
2023-04-16T03:55:38.796Z,64.12
2023-04-16T03:58:06.544Z,64.06
2023-04-16T04:00:34.704Z,64.16
2023-04-16T04:03:07.515Z,64.11
2023-04-16T04:05:36.693Z,64.12
2023-04-16T04:08:05.294Z,64.12
2023-04-16T04:10:34.325Z,64.18
2023-04-16T04:13:03.944Z,64.09
2023-04-16T04:15:32.296Z,64.13
2023-04-16T04:18:00.047Z,64.07
2023-04-16T04:20:28.270Z,64.14
2023-04-16T04:22:56.106Z,64.10
2023-04-16T04:25:25.910Z,63.98
2023-04-16T04:27:54.264Z,63.94
2023-04-16T04:30:22.216Z,63.69
2023-04-16T04:32:50.209Z,63.55
2023-04-16T04:35:18.248Z,63.38
2023-04-16T04:37:46.093Z,63.21
2023-04-16T04:40:17.898Z,63.08
2023-04-16T04:42:46.322Z,62.87
2023-04-16T04:45:14.216Z,62.70
2023-04-16T04:47:42.504Z,62.42
2023-04-16T04:50:10.851Z,62.23
2023-04-16T04:52:39.210Z,62.06
2023-04-16T04:55:07.657Z,61.73
2023-04-16T04:57:36.262Z,61.29
2023-04-16T05:00:05.712Z,60.88
2023-04-16T05:02:41.095Z,60.35
2023-04-16T05:05:09.335Z,60.25
2023-04-16T05:07:36.974Z,59.91
2023-04-16T05:10:05.087Z,59.35
2023-04-16T05:12:32.991Z,58.87
2023-04-16T05:15:00.690Z,58.75
2023-04-16T05:17:28.632Z,58.44
2023-04-16T05:19:56.422Z,58.17
2023-04-16T05:22:24.286Z,57.67
2023-04-16T05:24:52.003Z,57.03
2023-04-16T05:27:20.218Z,56.35
2023-04-16T05:29:47.877Z,55.95
2023-04-16T05:32:16.026Z,55.36
2023-04-16T05:34:43.929Z,55.04
2023-04-16T05:37:11.799Z,55.15
2023-04-16T05:39:39.643Z,54.19
2023-04-16T05:42:07.648Z,53.47
2023-04-16T05:44:35.776Z,53.14
2023-04-16T05:47:03.590Z,53.18
2023-04-16T05:49:31.585Z,53.21
2023-04-16T05:51:59.517Z,52.69
2023-04-16T05:54:27.369Z,52.36
2023-04-16T05:56:55.440Z,51.69
2023-04-16T05:59:23.298Z,51.32
2023-04-16T06:01:51.242Z,50.86
2023-04-16T06:04:19.719Z,50.54
2023-04-16T06:06:47.918Z,49.60
2023-04-16T06:09:15.868Z,49.70
2023-04-16T06:11:43.578Z,49.37
2023-04-16T06:14:11.429Z,48.88
2023-04-16T06:16:39.222Z,48.61
2023-04-16T06:19:07.093Z,48.67
2023-04-16T06:21:35.022Z,48.68
2023-04-16T06:24:03.071Z,48.35
2023-04-16T06:26:30.813Z,47.92
2023-04-16T06:28:58.678Z,47.44
2023-04-16T06:31:26.528Z,47.40
2023-04-16T06:33:54.623Z,47.01
2023-04-16T06:36:23.166Z,47.08
2023-04-16T06:38:50.961Z,46.48
2023-04-16T06:41:18.831Z,46.44
2023-04-16T06:43:47.070Z,45.73
2023-04-16T06:46:14.924Z,45.53
2023-04-16T06:48:42.997Z,45.14
2023-04-16T06:51:11.911Z,44.21
2023-04-16T06:53:39.845Z,43.83
2023-04-16T06:56:07.846Z,43.74
2023-04-16T06:58:36.573Z,43.88
2023-04-16T07:01:04.845Z,43.21
2023-04-16T07:03:32.976Z,42.68
2023-04-16T07:06:00.982Z,42.20
2023-04-16T07:08:29.186Z,42.29
2023-04-16T07:10:57.150Z,42.06
2023-04-16T07:13:25.054Z,42.28
2023-04-16T07:15:52.938Z,41.99
2023-04-16T07:18:21.716Z,41.36
2023-04-16T07:20:49.649Z,40.97
2023-04-16T07:23:17.550Z,41.04
2023-04-16T07:25:46.037Z,40.78
2023-04-16T07:28:16.562Z,41.03
2023-04-16T07:30:44.532Z,41.31
2023-04-16T07:33:12.357Z,41.13
2023-04-16T07:35:40.252Z,40.99
2023-04-16T07:38:08.414Z,40.70
2023-04-16T07:40:36.857Z,41.19
2023-04-16T07:43:04.711Z,41.25
2023-04-16T07:45:32.487Z,41.34
2023-04-16T07:48:00.545Z,41.38
2023-04-16T07:50:28.600Z,41.39
2023-04-16T07:52:56.400Z,40.97
2023-04-16T07:55:24.128Z,39.98
2023-04-16T07:57:52.624Z,39.78
2023-04-16T08:00:20.519Z,39.56
2023-04-16T08:02:48.595Z,39.38
2023-04-16T08:05:16.716Z,38.68
2023-04-16T08:07:44.593Z,37.80
2023-04-16T08:10:12.879Z,37.07
2023-04-16T08:12:41.071Z,36.55
2023-04-16T08:15:09.052Z,35.90
2023-04-16T08:17:37.861Z,35.69
2023-04-16T08:20:06.410Z,36.14
2023-04-16T08:22:34.353Z,36.11
2023-04-16T08:25:02.970Z,36.18
2023-04-16T08:27:31.328Z,35.91
2023-04-16T08:29:59.221Z,35.77
2023-04-16T08:32:27.250Z,36.10
2023-04-16T08:34:55.705Z,35.80
2023-04-16T08:37:23.597Z,35.59
2023-04-16T08:39:51.310Z,35.41
2023-04-16T08:42:23.626Z,34.65
2023-04-16T08:44:53.734Z,34.98
2023-04-16T08:47:24.516Z,36.79
2023-04-16T08:49:57.911Z,38.09
2023-04-16T08:52:31.007Z,38.36
2023-04-16T08:55:10.861Z,38.83
2023-04-16T08:57:41.395Z,37.86
2023-04-16T09:00:09.986Z,36.32
2023-04-16T09:02:38.508Z,36.91
2023-04-16T09:05:07.460Z,37.05
2023-04-16T09:07:35.585Z,35.79
2023-04-16T09:10:03.591Z,35.04
2023-04-16T09:12:31.965Z,35.32
2023-04-16T09:15:02.893Z,35.13
2023-04-16T09:17:31.381Z,34.93
2023-04-16T09:19:59.234Z,35.12
2023-04-16T09:22:27.434Z,34.55
2023-04-16T09:24:55.431Z,33.38
2023-04-16T09:27:26.085Z,33.57
2023-04-16T09:29:54.142Z,32.67
2023-04-16T09:32:25.893Z,31.52
2023-04-16T09:34:56.804Z,31.16
2023-04-16T09:37:25.638Z,30.63
2023-04-16T09:39:55.195Z,29.83
2023-04-16T09:42:28.320Z,30.09
2023-04-16T09:44:59.471Z,30.70
2023-04-16T09:47:44.719Z,32.12
2023-04-16T09:50:18.101Z,31.01
2023-04-16T09:52:48.997Z,30.42
2023-04-16T09:55:17.007Z,31.04
2023-04-16T09:57:44.831Z,30.51
2023-04-16T10:00:13.275Z,30.14
2023-04-16T10:02:42.399Z,29.45
2023-04-16T10:05:16.786Z,29.37
2023-04-16T10:07:44.810Z,30.11
2023-04-16T10:10:12.869Z,30.08
2023-04-16T10:12:41.073Z,29.59
2023-04-16T10:15:09.138Z,29.48
2023-04-16T10:17:37.417Z,29.99
2023-04-16T10:20:06.313Z,30.31
2023-04-16T10:22:34.714Z,30.50
2023-04-16T10:25:03.283Z,30.68
2023-04-16T10:27:31.322Z,30.65
2023-04-16T10:29:59.607Z,30.23
2023-04-16T10:32:28.728Z,30.22
2023-04-16T10:34:57.175Z,30.48
2023-04-16T10:37:32.001Z,30.24
2023-04-16T10:40:00.037Z,30.42
2023-04-16T10:42:28.031Z,30.00
2023-04-16T10:44:59.446Z,30.17
2023-04-16T10:47:29.032Z,30.30
2023-04-16T10:49:58.161Z,30.03
2023-04-16T10:52:29.634Z,29.66
2023-04-16T10:54:59.180Z,29.54
2023-04-16T10:57:29.071Z,29.36
2023-04-16T10:59:57.256Z,29.27
2023-04-16T11:02:29.100Z,28.92
2023-04-16T11:04:57.694Z,28.80
2023-04-16T11:07:33.314Z,28.57
2023-04-16T11:10:04.510Z,28.86
2023-04-16T11:12:34.332Z,29.37
2023-04-16T11:15:06.753Z,28.85
2023-04-16T11:17:45.310Z,28.22
2023-04-16T11:20:19.462Z,28.36
2023-04-16T11:22:48.746Z,28.41
2023-04-16T11:25:23.625Z,28.53
2023-04-16T11:27:52.489Z,28.55
2023-04-16T11:30:28.667Z,28.63
2023-04-16T11:32:56.693Z,28.71
2023-04-16T11:35:24.547Z,28.84
2023-04-16T11:37:55.853Z,28.91
2023-04-16T11:40:23.809Z,29.08
2023-04-16T11:42:51.465Z,29.43
2023-04-16T11:45:19.525Z,28.96
2023-04-16T11:47:51.879Z,28.95
2023-04-16T11:50:29.361Z,28.55
2023-04-16T11:53:02.972Z,28.60
2023-04-16T11:55:31.503Z,28.79
2023-04-16T11:58:11.127Z,28.77
2023-04-16T12:00:39.179Z,28.34
2023-04-16T12:03:07.051Z,28.21
2023-04-16T12:05:36.015Z,28.28
2023-04-16T12:08:05.112Z,28.23
2023-04-16T12:10:36.805Z,28.36
2023-04-16T12:13:11.821Z,28.31
2023-04-16T12:15:49.929Z,28.36
2023-04-16T12:18:18.426Z,28.60
2023-04-16T12:20:46.786Z,29.02
2023-04-16T12:23:25.464Z,29.07
2023-04-16T12:25:54.267Z,29.33
2023-04-16T12:28:32.313Z,29.79
2023-04-16T12:31:00.658Z,29.57
2023-04-16T12:33:28.745Z,29.80
2023-04-16T12:35:56.863Z,29.78
2023-04-16T12:38:25.613Z,29.84
2023-04-16T12:40:56.706Z,30.02
2023-04-16T12:43:25.243Z,29.76
2023-04-16T12:45:53.614Z,29.87
2023-04-16T12:48:22.012Z,29.89
2023-04-16T12:50:50.100Z,30.04
2023-04-16T12:53:17.997Z,30.32
2023-04-16T12:55:45.964Z,30.50
2023-04-16T12:58:13.852Z,30.92
2023-04-16T13:00:41.668Z,31.00
2023-04-16T13:03:09.684Z,30.44
2023-04-16T13:05:37.915Z,30.47
2023-04-16T13:08:05.799Z,30.74
2023-04-16T13:10:33.536Z,30.60
2023-04-16T13:13:01.394Z,30.59
2023-04-16T13:15:29.140Z,30.63
2023-04-16T13:17:57.025Z,30.21
2023-04-16T13:20:24.815Z,30.44
2023-04-16T13:22:53.083Z,30.33
2023-04-16T13:25:20.969Z,30.24
2023-04-16T13:27:48.982Z,30.50
2023-04-16T13:30:16.918Z,30.47
2023-04-16T13:32:44.940Z,30.37
2023-04-16T13:35:13.040Z,30.18
2023-04-16T13:37:41.000Z,29.93
2023-04-16T13:40:09.135Z,29.99
2023-04-16T13:42:37.210Z,30.06
2023-04-16T13:45:05.339Z,30.18
2023-04-16T13:47:33.203Z,31.87
2023-04-16T13:50:01.702Z,32.81
2023-04-16T13:52:29.616Z,33.21
2023-04-16T13:54:59.598Z,33.80
2023-04-16T13:57:28.398Z,34.64
2023-04-16T13:59:56.292Z,34.79
2023-04-16T14:02:26.062Z,35.38
2023-04-16T14:04:54.438Z,35.91
2023-04-16T14:07:26.167Z,36.15
2023-04-16T14:09:54.108Z,36.08
2023-04-16T14:12:21.934Z,36.09
2023-04-16T14:14:49.924Z,36.23
2023-04-16T14:17:17.855Z,36.20
2023-04-16T14:19:46.050Z,36.25
2023-04-16T14:22:17.664Z,36.52
2023-04-16T14:24:45.362Z,36.64
2023-04-16T14:27:13.729Z,36.80
2023-04-16T14:29:41.502Z,37.01
2023-04-16T14:32:09.358Z,37.18
2023-04-16T14:34:37.139Z,37.13
2023-04-16T14:37:05.667Z,37.25
2023-04-16T14:39:33.587Z,37.22
2023-04-16T14:42:01.479Z,37.50
2023-04-16T14:44:29.308Z,37.73
2023-04-16T14:46:57.149Z,37.71
2023-04-16T14:49:26.488Z,39.47
2023-04-16T14:51:54.393Z,38.61
2023-04-16T14:54:22.334Z,38.33
2023-04-16T14:56:50.823Z,37.79
2023-04-16T14:59:18.645Z,37.91
2023-04-16T15:01:47.342Z,38.12
2023-04-16T15:04:15.777Z,38.29
2023-04-16T15:06:44.086Z,38.51
2023-04-16T15:09:12.449Z,38.46
2023-04-16T15:11:40.529Z,38.47
2023-04-16T15:14:08.559Z,38.64
2023-04-16T15:16:37.002Z,38.70
2023-04-16T15:19:05.383Z,38.44
2023-04-16T15:21:33.312Z,38.53
2023-04-16T15:24:01.500Z,38.63
2023-04-16T15:26:29.631Z,38.81
2023-04-16T15:28:57.471Z,38.81
2023-04-16T15:31:26.406Z,38.67
2023-04-16T15:33:54.779Z,38.37
2023-04-16T15:36:22.897Z,38.22
2023-04-16T15:38:51.094Z,38.19
2023-04-16T15:41:19.594Z,38.10
2023-04-16T15:43:47.513Z,38.08
2023-04-16T15:46:16.397Z,38.13
2023-04-16T15:48:44.167Z,37.89
2023-04-16T15:51:12.310Z,38.13
2023-04-16T15:53:40.282Z,38.12
2023-04-16T15:56:08.034Z,38.08
2023-04-16T15:58:36.310Z,38.03
2023-04-16T16:01:04.374Z,38.15
2023-04-16T16:03:34.120Z,38.34
2023-04-16T16:06:04.617Z,38.28
2023-04-16T16:08:35.773Z,38.22
2023-04-16T16:11:04.010Z,38.35
2023-04-16T16:13:31.734Z,38.36
2023-04-16T16:15:59.504Z,38.20
2023-04-16T16:18:27.517Z,37.98
2023-04-16T16:20:58.832Z,37.78
2023-04-16T16:23:27.129Z,37.71
2023-04-16T16:25:55.495Z,37.87
2023-04-16T16:28:25.391Z,37.81
2023-04-16T16:30:55.669Z,37.84
2023-04-16T16:33:23.629Z,37.71
2023-04-16T16:35:51.890Z,37.99
2023-04-16T16:38:19.955Z,38.04
2023-04-16T16:40:48.105Z,38.05
2023-04-16T16:43:16.697Z,38.04
2023-04-16T16:45:45.208Z,38.27
2023-04-16T16:48:13.102Z,38.41
2023-04-16T16:50:40.940Z,38.56
2023-04-16T16:53:09.128Z,38.76
2023-04-16T16:55:36.854Z,39.14
2023-04-16T16:58:04.590Z,39.33
2023-04-16T17:00:32.901Z,39.57
2023-04-16T17:03:02.138Z,39.83
2023-04-16T17:05:29.939Z,40.06
2023-04-16T17:07:58.358Z,40.36
2023-04-16T17:10:26.135Z,40.44
2023-04-16T17:12:54.235Z,40.34
2023-04-16T17:15:22.175Z,40.36
2023-04-16T17:17:50.203Z,40.51
2023-04-16T17:20:18.492Z,40.18
2023-04-16T17:22:46.312Z,39.84
2023-04-16T17:25:14.595Z,39.63
2023-04-16T17:27:42.488Z,39.93
2023-04-16T17:30:10.470Z,39.88
2023-04-16T17:32:38.731Z,39.88
2023-04-16T17:35:06.954Z,39.96
2023-04-16T17:37:34.895Z,40.19
2023-04-16T17:40:07.764Z,40.07
2023-04-16T17:42:36.436Z,40.34
2023-04-16T17:45:04.357Z,40.47
2023-04-16T17:47:34.253Z,40.50
2023-04-16T17:50:02.686Z,40.76
2023-04-16T17:52:30.582Z,40.75
2023-04-16T17:55:01.387Z,40.87
2023-04-16T17:57:29.745Z,40.90
2023-04-16T17:59:57.840Z,41.02
2023-04-16T18:02:25.994Z,41.17
2023-04-16T18:04:54.610Z,41.26
2023-04-16T18:07:22.598Z,41.30
2023-04-16T18:09:50.387Z,41.24
2023-04-16T18:12:18.503Z,41.23
2023-04-16T18:14:46.414Z,41.26
2023-04-16T18:17:14.514Z,41.32
2023-04-16T18:19:46.170Z,41.52
2023-04-16T18:22:14.036Z,41.77
2023-04-16T18:24:42.312Z,41.86
2023-04-16T18:27:10.173Z,41.88
2023-04-16T18:29:39.837Z,41.93
2023-04-16T18:32:11.835Z,42.26
2023-04-16T18:34:40.253Z,42.25
2023-04-16T18:37:08.218Z,42.42
2023-04-16T18:39:36.957Z,42.65
2023-04-16T18:42:05.521Z,42.68
2023-04-16T18:44:33.672Z,42.72
2023-04-16T18:47:01.557Z,43.01
2023-04-16T18:49:29.560Z,43.18
2023-04-16T18:51:57.355Z,43.35
2023-04-16T18:54:25.342Z,43.39
2023-04-16T18:56:53.226Z,43.38
2023-04-16T18:59:21.171Z,43.57
2023-04-16T19:01:49.159Z,43.64
2023-04-16T19:04:17.052Z,43.69
2023-04-16T19:06:45.197Z,43.81
2023-04-16T19:09:13.229Z,43.83
2023-04-16T19:11:41.294Z,43.76
2023-04-16T19:14:09.040Z,43.96
2023-04-16T19:16:38.739Z,43.96
2023-04-16T19:19:06.516Z,44.06
2023-04-16T19:21:34.367Z,44.22
2023-04-16T19:24:02.398Z,44.27
2023-04-16T19:26:30.079Z,44.39
2023-04-16T19:28:57.841Z,44.59
2023-04-16T19:31:26.596Z,44.43
2023-04-16T19:33:54.361Z,44.60
2023-04-16T19:36:22.182Z,45.00
2023-04-16T19:38:50.510Z,45.84
2023-04-16T19:41:18.448Z,46.11
2023-04-16T19:43:46.182Z,46.13
2023-04-16T19:46:15.794Z,46.52
2023-04-16T19:48:44.281Z,47.10
2023-04-16T19:51:12.009Z,47.10
2023-04-16T19:53:39.755Z,47.41
2023-04-16T19:56:07.558Z,47.61
2023-04-16T19:58:35.497Z,47.79
2023-04-16T20:01:08.099Z,47.78
2023-04-16T20:03:36.230Z,47.24
2023-04-16T20:06:05.448Z,46.78
2023-04-16T20:08:33.599Z,46.15
2023-04-16T20:11:01.481Z,45.89
2023-04-16T20:13:29.305Z,45.72
2023-04-16T20:15:57.733Z,45.83
2023-04-16T20:18:28.236Z,45.94
2023-04-16T20:20:57.070Z,45.83
2023-04-16T20:23:24.930Z,45.99
2023-04-16T20:25:52.739Z,46.15
2023-04-16T20:28:21.605Z,46.16
2023-04-16T20:30:50.926Z,46.10
2023-04-16T20:33:18.892Z,46.00
2023-04-16T20:35:47.099Z,45.93
2023-04-16T20:38:14.895Z,46.11
2023-04-16T20:40:44.699Z,46.10
2023-04-16T20:43:14.319Z,46.07
2023-04-16T20:45:45.937Z,46.21
2023-04-16T20:48:14.084Z,46.20
2023-04-16T20:50:42.167Z,46.39
2023-04-16T20:53:10.413Z,46.35
2023-04-16T20:55:38.573Z,46.74
2023-04-16T20:58:06.529Z,47.55
2023-04-16T21:00:34.380Z,47.98
2023-04-16T21:03:02.433Z,48.39
2023-04-16T21:05:30.711Z,48.66
2023-04-16T21:07:58.788Z,48.67
2023-04-16T21:10:26.722Z,48.56
2023-04-16T21:12:54.638Z,48.47
2023-04-16T21:15:22.583Z,48.40
2023-04-16T21:17:50.437Z,48.36
2023-04-16T21:20:18.314Z,48.54
2023-04-16T21:22:46.232Z,48.52
2023-04-16T21:25:14.522Z,48.47
2023-04-16T21:27:42.295Z,48.41
2023-04-16T21:30:10.597Z,48.53
2023-04-16T21:32:39.209Z,48.78
2023-04-16T21:35:07.501Z,49.19
2023-04-16T21:37:35.317Z,49.29
2023-04-16T21:40:05.655Z,49.29
2023-04-16T21:42:33.827Z,49.36
2023-04-16T21:45:01.698Z,49.61
2023-04-16T21:47:29.568Z,49.85
2023-04-16T21:49:57.676Z,49.99
2023-04-16T21:52:25.625Z,50.11
2023-04-16T21:54:53.433Z,50.32
2023-04-16T21:57:21.437Z,50.80
2023-04-16T21:59:49.187Z,50.96
2023-04-16T22:02:17.286Z,51.18
2023-04-16T22:04:45.460Z,51.52
2023-04-16T22:07:13.525Z,51.64
2023-04-16T22:09:41.862Z,51.90
2023-04-16T22:12:12.842Z,52.14
2023-04-16T22:14:49.135Z,52.25
2023-04-16T22:17:24.114Z,52.39
2023-04-16T22:19:53.675Z,52.60
2023-04-16T22:22:21.909Z,52.76
2023-04-16T22:24:49.843Z,52.96
2023-04-16T22:27:18.286Z,53.11
2023-04-16T22:29:46.230Z,53.21
2023-04-16T22:32:14.184Z,53.24
2023-04-16T22:34:42.689Z,53.46
2023-04-16T22:37:10.918Z,53.54
2023-04-16T22:39:38.919Z,53.76
2023-04-16T22:42:07.449Z,53.90
2023-04-16T22:44:36.753Z,54.08
2023-04-16T22:47:04.913Z,54.15
2023-04-16T22:49:33.227Z,54.17
2023-04-16T22:52:01.128Z,54.27
2023-04-16T22:54:29.215Z,54.30
2023-04-16T22:56:57.103Z,54.36
2023-04-16T22:59:25.010Z,54.35
2023-04-16T23:01:53.157Z,54.38
2023-04-16T23:04:21.442Z,54.50
2023-04-16T23:06:49.232Z,54.69
2023-04-16T23:09:17.113Z,54.77
2023-04-16T23:11:45.658Z,54.97
2023-04-16T23:14:16.192Z,55.16
2023-04-16T23:16:44.531Z,55.34
2023-04-16T23:19:14.960Z,55.58
2023-04-16T23:21:42.983Z,55.65
2023-04-16T23:24:10.932Z,55.81
2023-04-16T23:26:38.780Z,56.16
2023-04-16T23:29:06.618Z,56.28
2023-04-16T23:31:34.610Z,56.36
2023-04-16T23:34:02.829Z,56.54
2023-04-16T23:36:31.166Z,56.54
2023-04-16T23:38:58.930Z,56.70
2023-04-16T23:41:26.966Z,56.94
2023-04-16T23:43:54.959Z,57.25
2023-04-16T23:46:22.843Z,57.55
2023-04-16T23:48:51.246Z,57.59
2023-04-16T23:51:19.189Z,57.71
2023-04-16T23:53:46.976Z,58.03
2023-04-16T23:56:15.468Z,58.09
2023-04-16T23:58:43.398Z,58.03
